sensor_id;sensor_type;location;lat;lon;timestamp;temperature;humidity
43151;DHT22;28755;51.478;5.702;2022-10-31T00:02:00;15.00;99.90
43151;DHT22;28755;51.478;5.702;2022-10-31T00:04:26;14.90;99.90
43151;DHT22;28755;51.478;5.702;2022-10-31T00:06:51;14.90;99.90
43151;DHT22;28755;51.478;5.702;2022-10-31T00:09:17;14.80;99.90
43151;DHT22;28755;51.478;5.702;2022-10-31T00:11:43;14.80;99.90
43151;DHT22;28755;51.478;5.702;2022-10-31T00:14:08;14.80;99.90
43151;DHT22;28755;51.478;5.702;2022-10-31T00:16:34;14.90;99.90
43151;DHT22;28755;51.478;5.702;2022-10-31T00:19:02;14.80;99.90
43151;DHT22;28755;51.478;5.702;2022-10-31T00:21:29;14.80;99.90
43151;DHT22;28755;51.478;5.702;2022-10-31T00:23:56;14.80;99.90
43151;DHT22;28755;51.478;5.702;2022-10-31T00:26:21;14.70;99.90
43151;DHT22;28755;51.478;5.702;2022-10-31T00:28:47;14.70;99.90
43151;DHT22;28755;51.478;5.702;2022-10-31T00:31:13;14.70;99.90
43151;DHT22;28755;51.478;5.702;2022-10-31T00:33:40;14.70;99.90
43151;DHT22;28755;51.478;5.702;2022-10-31T00:36:09;14.70;99.90
43151;DHT22;28755;51.478;5.702;2022-10-31T00:38:35;14.70;99.90
43151;DHT22;28755;51.478;5.702;2022-10-31T00:41:01;14.70;99.90
43151;DHT22;28755;51.478;5.702;2022-10-31T00:43:26;14.60;99.90
43151;DHT22;28755;51.478;5.702;2022-10-31T00:45:52;14.60;99.90
43151;DHT22;28755;51.478;5.702;2022-10-31T00:48:17;14.60;99.90
43151;DHT22;28755;51.478;5.702;2022-10-31T00:50:43;14.40;99.90
43151;DHT22;28755;51.478;5.702;2022-10-31T00:53:09;14.50;99.90
43151;DHT22;28755;51.478;5.702;2022-10-31T00:55:34;14.50;99.90
43151;DHT22;28755;51.478;5.702;2022-10-31T00:58:00;14.40;99.90
43151;DHT22;28755;51.478;5.702;2022-10-31T01:00:25;14.40;99.90
43151;DHT22;28755;51.478;5.702;2022-10-31T01:02:51;14.40;99.90
43151;DHT22;28755;51.478;5.702;2022-10-31T01:05:17;14.40;99.90
43151;DHT22;28755;51.478;5.702;2022-10-31T01:07:43;14.40;99.90
43151;DHT22;28755;51.478;5.702;2022-10-31T01:10:10;14.40;99.90
43151;DHT22;28755;51.478;5.702;2022-10-31T01:12:37;14.40;99.90
43151;DHT22;28755;51.478;5.702;2022-10-31T01:15:03;14.40;99.90
43151;DHT22;28755;51.478;5.702;2022-10-31T01:17:29;14.30;99.90
43151;DHT22;28755;51.478;5.702;2022-10-31T01:19:54;14.30;99.90
43151;DHT22;28755;51.478;5.702;2022-10-31T01:22:20;14.20;99.90
43151;DHT22;28755;51.478;5.702;2022-10-31T01:24:45;14.20;99.90
43151;DHT22;28755;51.478;5.702;2022-10-31T01:27:11;14.20;99.90
43151;DHT22;28755;51.478;5.702;2022-10-31T01:29:36;14.10;99.90
43151;DHT22;28755;51.478;5.702;2022-10-31T01:32:02;14.10;99.90
43151;DHT22;28755;51.478;5.702;2022-10-31T01:34:28;14.00;99.90
43151;DHT22;28755;51.478;5.702;2022-10-31T01:36:53;14.00;99.90
43151;DHT22;28755;51.478;5.702;2022-10-31T01:39:19;13.90;99.90
43151;DHT22;28755;51.478;5.702;2022-10-31T01:41:49;13.90;99.90
43151;DHT22;28755;51.478;5.702;2022-10-31T01:46:46;13.90;99.90
43151;DHT22;28755;51.478;5.702;2022-10-31T01:49:20;13.80;99.90
43151;DHT22;28755;51.478;5.702;2022-10-31T01:52:12;13.80;99.90
43151;DHT22;28755;51.478;5.702;2022-10-31T01:54:48;13.70;99.90
43151;DHT22;28755;51.478;5.702;2022-10-31T01:57:14;13.70;99.90
43151;DHT22;28755;51.478;5.702;2022-10-31T01:59:44;13.70;99.90
43151;DHT22;28755;51.478;5.702;2022-10-31T02:02:12;13.60;99.90
43151;DHT22;28755;51.478;5.702;2022-10-31T02:04:38;13.60;99.90
43151;DHT22;28755;51.478;5.702;2022-10-31T02:07:13;13.60;99.90
43151;DHT22;28755;51.478;5.702;2022-10-31T02:09:40;13.60;99.90
43151;DHT22;28755;51.478;5.702;2022-10-31T02:12:06;13.60;99.90
43151;DHT22;28755;51.478;5.702;2022-10-31T02:14:33;13.60;99.90
43151;DHT22;28755;51.478;5.702;2022-10-31T02:16:59;13.50;99.90
43151;DHT22;28755;51.478;5.702;2022-10-31T02:19:59;13.50;99.90
43151;DHT22;28755;51.478;5.702;2022-10-31T02:23:09;13.50;99.90
43151;DHT22;28755;51.478;5.702;2022-10-31T02:25:19;13.40;99.90
43151;DHT22;28755;51.478;5.702;2022-10-31T02:33:25;13.40;99.90
43151;DHT22;28755;51.478;5.702;2022-10-31T02:38:43;13.40;99.90
43151;DHT22;28755;51.478;5.702;2022-10-31T02:46:38;13.40;99.90
43151;DHT22;28755;51.478;5.702;2022-10-31T02:49:16;13.40;99.90
43151;DHT22;28755;51.478;5.702;2022-10-31T02:51:43;13.40;99.90
43151;DHT22;28755;51.478;5.702;2022-10-31T02:54:18;13.40;99.90
43151;DHT22;28755;51.478;5.702;2022-10-31T02:56:45;13.40;99.90
43151;DHT22;28755;51.478;5.702;2022-10-31T02:59:11;13.40;99.90
43151;DHT22;28755;51.478;5.702;2022-10-31T03:06:40;13.30;99.90
43151;DHT22;28755;51.478;5.702;2022-10-31T03:11:50;13.20;99.90
43151;DHT22;28755;51.478;5.702;2022-10-31T03:17:28;13.10;99.90
43151;DHT22;28755;51.478;5.702;2022-10-31T03:19:59;13.10;99.90
43151;DHT22;28755;51.478;5.702;2022-10-31T03:22:28;13.10;99.90
43151;DHT22;28755;51.478;5.702;2022-10-31T03:24:55;13.10;99.90
43151;DHT22;28755;51.478;5.702;2022-10-31T03:27:24;13.10;99.90
43151;DHT22;28755;51.478;5.702;2022-10-31T03:29:52;13.10;99.90
43151;DHT22;28755;51.478;5.702;2022-10-31T03:32:27;13.20;99.90
43151;DHT22;28755;51.478;5.702;2022-10-31T03:34:57;13.10;99.90
43151;DHT22;28755;51.478;5.702;2022-10-31T03:37:27;13.10;99.90
43151;DHT22;28755;51.478;5.702;2022-10-31T03:39:55;13.10;99.90
43151;DHT22;28755;51.478;5.702;2022-10-31T03:42:24;13.10;99.90
43151;DHT22;28755;51.478;5.702;2022-10-31T03:45:03;13.10;99.90
43151;DHT22;28755;51.478;5.702;2022-10-31T03:47:31;13.00;99.90
43151;DHT22;28755;51.478;5.702;2022-10-31T03:49:57;13.00;99.90
43151;DHT22;28755;51.478;5.702;2022-10-31T03:52:27;13.00;99.90
43151;DHT22;28755;51.478;5.702;2022-10-31T03:55:01;12.80;99.90
43151;DHT22;28755;51.478;5.702;2022-10-31T04:00:20;12.80;99.90
43151;DHT22;28755;51.478;5.702;2022-10-31T04:03:00;12.80;99.90
43151;DHT22;28755;51.478;5.702;2022-10-31T04:05:29;12.80;99.90
43151;DHT22;28755;51.478;5.702;2022-10-31T04:07:58;12.80;99.90
43151;DHT22;28755;51.478;5.702;2022-10-31T04:10:26;12.70;99.90
43151;DHT22;28755;51.478;5.702;2022-10-31T04:12:58;12.70;99.90
43151;DHT22;28755;51.478;5.702;2022-10-31T04:15:27;12.80;99.90
43151;DHT22;28755;51.478;5.702;2022-10-31T04:17:56;12.80;99.90
43151;DHT22;28755;51.478;5.702;2022-10-31T04:20:37;12.70;99.90
43151;DHT22;28755;51.478;5.702;2022-10-31T04:23:04;12.90;99.90
43151;DHT22;28755;51.478;5.702;2022-10-31T04:25:30;12.80;99.90
43151;DHT22;28755;51.478;5.702;2022-10-31T04:27:55;12.80;99.90
43151;DHT22;28755;51.478;5.702;2022-10-31T04:30:21;12.90;99.90
43151;DHT22;28755;51.478;5.702;2022-10-31T04:32:47;12.80;99.90
43151;DHT22;28755;51.478;5.702;2022-10-31T04:35:13;12.90;99.90
43151;DHT22;28755;51.478;5.702;2022-10-31T04:37:38;12.90;99.90
43151;DHT22;28755;51.478;5.702;2022-10-31T04:40:05;12.90;99.90
43151;DHT22;28755;51.478;5.702;2022-10-31T04:42:31;13.00;99.90
43151;DHT22;28755;51.478;5.702;2022-10-31T04:44:57;13.00;99.90
43151;DHT22;28755;51.478;5.702;2022-10-31T04:47:22;13.00;99.90
43151;DHT22;28755;51.478;5.702;2022-10-31T04:49:48;13.00;99.90
43151;DHT22;28755;51.478;5.702;2022-10-31T04:52:13;13.10;99.90
43151;DHT22;28755;51.478;5.702;2022-10-31T04:54:39;13.20;99.90
43151;DHT22;28755;51.478;5.702;2022-10-31T04:57:05;13.10;99.90
43151;DHT22;28755;51.478;5.702;2022-10-31T04:59:30;13.10;99.90
43151;DHT22;28755;51.478;5.702;2022-10-31T05:01:56;13.10;99.90
43151;DHT22;28755;51.478;5.702;2022-10-31T05:04:21;13.00;99.90
43151;DHT22;28755;51.478;5.702;2022-10-31T05:06:47;13.10;99.90
43151;DHT22;28755;51.478;5.702;2022-10-31T05:09:13;13.00;99.90
43151;DHT22;28755;51.478;5.702;2022-10-31T05:11:38;13.00;99.90
43151;DHT22;28755;51.478;5.702;2022-10-31T05:14:04;13.00;99.90
43151;DHT22;28755;51.478;5.702;2022-10-31T05:16:29;13.00;99.90
43151;DHT22;28755;51.478;5.702;2022-10-31T05:18:55;13.00;99.90
43151;DHT22;28755;51.478;5.702;2022-10-31T05:21:20;12.90;99.90
43151;DHT22;28755;51.478;5.702;2022-10-31T05:23:46;12.90;99.90
43151;DHT22;28755;51.478;5.702;2022-10-31T05:26:11;12.80;99.90
43151;DHT22;28755;51.478;5.702;2022-10-31T05:28:37;12.80;99.90
43151;DHT22;28755;51.478;5.702;2022-10-31T05:31:03;12.70;99.90
43151;DHT22;28755;51.478;5.702;2022-10-31T05:33:28;12.70;99.90
43151;DHT22;28755;51.478;5.702;2022-10-31T05:35:54;12.70;99.90
43151;DHT22;28755;51.478;5.702;2022-10-31T05:38:19;12.60;99.90
43151;DHT22;28755;51.478;5.702;2022-10-31T05:40:45;12.60;99.90
43151;DHT22;28755;51.478;5.702;2022-10-31T05:43:11;12.50;99.90
43151;DHT22;28755;51.478;5.702;2022-10-31T05:45:36;12.40;99.90
43151;DHT22;28755;51.478;5.702;2022-10-31T05:48:02;12.40;99.90
43151;DHT22;28755;51.478;5.702;2022-10-31T05:50:30;12.40;99.90
43151;DHT22;28755;51.478;5.702;2022-10-31T05:53:01;12.40;99.90
43151;DHT22;28755;51.478;5.702;2022-10-31T05:55:28;12.30;99.90
43151;DHT22;28755;51.478;5.702;2022-10-31T05:57:54;12.30;99.90
43151;DHT22;28755;51.478;5.702;2022-10-31T06:00:21;12.20;99.90
43151;DHT22;28755;51.478;5.702;2022-10-31T06:02:46;12.10;99.90
43151;DHT22;28755;51.478;5.702;2022-10-31T06:05:12;12.10;99.90
43151;DHT22;28755;51.478;5.702;2022-10-31T06:07:38;12.10;99.90
43151;DHT22;28755;51.478;5.702;2022-10-31T06:10:05;12.10;99.90
43151;DHT22;28755;51.478;5.702;2022-10-31T06:12:31;12.00;99.90
43151;DHT22;28755;51.478;5.702;2022-10-31T06:15:04;12.00;99.90
43151;DHT22;28755;51.478;5.702;2022-10-31T06:17:29;12.00;99.90
43151;DHT22;28755;51.478;5.702;2022-10-31T06:19:55;12.00;99.90
43151;DHT22;28755;51.478;5.702;2022-10-31T06:22:20;12.00;99.90
43151;DHT22;28755;51.478;5.702;2022-10-31T06:24:46;12.00;99.90
43151;DHT22;28755;51.478;5.702;2022-10-31T06:27:12;12.00;99.90
43151;DHT22;28755;51.478;5.702;2022-10-31T06:29:40;12.00;99.90
43151;DHT22;28755;51.478;5.702;2022-10-31T06:32:05;12.00;99.90
43151;DHT22;28755;51.478;5.702;2022-10-31T06:34:31;11.90;99.90
43151;DHT22;28755;51.478;5.702;2022-10-31T06:36:56;11.90;99.90
43151;DHT22;28755;51.478;5.702;2022-10-31T06:39:22;11.90;99.90
43151;DHT22;28755;51.478;5.702;2022-10-31T06:41:48;11.90;99.90
43151;DHT22;28755;51.478;5.702;2022-10-31T06:44:14;11.90;99.90
43151;DHT22;28755;51.478;5.702;2022-10-31T06:46:39;11.90;99.90
43151;DHT22;28755;51.478;5.702;2022-10-31T06:49:05;11.90;99.90
43151;DHT22;28755;51.478;5.702;2022-10-31T06:51:30;11.90;99.90
43151;DHT22;28755;51.478;5.702;2022-10-31T06:53:56;11.90;99.90
43151;DHT22;28755;51.478;5.702;2022-10-31T06:56:21;11.90;99.90
43151;DHT22;28755;51.478;5.702;2022-10-31T06:58:47;12.00;99.90
43151;DHT22;28755;51.478;5.702;2022-10-31T07:01:12;12.00;99.90
43151;DHT22;28755;51.478;5.702;2022-10-31T07:03:38;12.00;99.90
43151;DHT22;28755;51.478;5.702;2022-10-31T07:06:04;12.00;99.90
43151;DHT22;28755;51.478;5.702;2022-10-31T07:08:29;12.00;99.90
43151;DHT22;28755;51.478;5.702;2022-10-31T07:10:56;12.10;99.90
43151;DHT22;28755;51.478;5.702;2022-10-31T07:13:23;12.20;99.90
43151;DHT22;28755;51.478;5.702;2022-10-31T07:15:54;12.10;99.90
43151;DHT22;28755;51.478;5.702;2022-10-31T07:18:20;12.20;99.90
43151;DHT22;28755;51.478;5.702;2022-10-31T07:20:46;12.30;99.90
43151;DHT22;28755;51.478;5.702;2022-10-31T07:23:12;12.30;99.90
43151;DHT22;28755;51.478;5.702;2022-10-31T07:25:39;12.50;99.90
43151;DHT22;28755;51.478;5.702;2022-10-31T07:28:05;12.60;99.90
43151;DHT22;28755;51.478;5.702;2022-10-31T07:30:30;12.60;99.90
43151;DHT22;28755;51.478;5.702;2022-10-31T07:32:56;12.70;99.90
43151;DHT22;28755;51.478;5.702;2022-10-31T07:35:25;12.80;99.90
43151;DHT22;28755;51.478;5.702;2022-10-31T07:37:51;12.90;99.90
43151;DHT22;28755;51.478;5.702;2022-10-31T07:40:17;12.90;99.90
43151;DHT22;28755;51.478;5.702;2022-10-31T07:42:45;13.00;99.90
43151;DHT22;28755;51.478;5.702;2022-10-31T07:45:15;13.10;99.90
43151;DHT22;28755;51.478;5.702;2022-10-31T07:47:51;13.40;99.90
43151;DHT22;28755;51.478;5.702;2022-10-31T07:50:19;13.60;99.90
43151;DHT22;28755;51.478;5.702;2022-10-31T07:52:45;13.90;99.90
43151;DHT22;28755;51.478;5.702;2022-10-31T07:55:11;13.90;99.90
43151;DHT22;28755;51.478;5.702;2022-10-31T07:57:37;14.00;99.90
43151;DHT22;28755;51.478;5.702;2022-10-31T08:00:06;14.20;99.90
43151;DHT22;28755;51.478;5.702;2022-10-31T08:02:32;14.20;99.90
43151;DHT22;28755;51.478;5.702;2022-10-31T08:04:58;14.20;99.90
43151;DHT22;28755;51.478;5.702;2022-10-31T08:07:25;14.50;99.90
43151;DHT22;28755;51.478;5.702;2022-10-31T08:09:51;14.60;99.90
43151;DHT22;28755;51.478;5.702;2022-10-31T08:12:16;14.70;99.90
43151;DHT22;28755;51.478;5.702;2022-10-31T08:14:42;14.80;99.90
43151;DHT22;28755;51.478;5.702;2022-10-31T08:17:07;14.80;99.90
43151;DHT22;28755;51.478;5.702;2022-10-31T08:19:33;14.90;99.90
43151;DHT22;28755;51.478;5.702;2022-10-31T08:21:58;15.00;99.90
43151;DHT22;28755;51.478;5.702;2022-10-31T08:24:24;15.00;99.90
43151;DHT22;28755;51.478;5.702;2022-10-31T08:26:50;15.10;99.90
43151;DHT22;28755;51.478;5.702;2022-10-31T08:29:16;15.30;99.90
43151;DHT22;28755;51.478;5.702;2022-10-31T08:31:42;15.30;99.90
43151;DHT22;28755;51.478;5.702;2022-10-31T08:34:08;15.20;99.90
43151;DHT22;28755;51.478;5.702;2022-10-31T08:36:34;15.30;99.90
43151;DHT22;28755;51.478;5.702;2022-10-31T08:39:00;15.50;99.90
43151;DHT22;28755;51.478;5.702;2022-10-31T08:41:25;15.40;99.90
43151;DHT22;28755;51.478;5.702;2022-10-31T08:43:51;15.40;99.90
43151;DHT22;28755;51.478;5.702;2022-10-31T08:46:17;15.50;99.90
43151;DHT22;28755;51.478;5.702;2022-10-31T08:48:43;15.60;99.90
43151;DHT22;28755;51.478;5.702;2022-10-31T08:51:09;15.60;99.90
43151;DHT22;28755;51.478;5.702;2022-10-31T08:53:35;15.50;99.90
43151;DHT22;28755;51.478;5.702;2022-10-31T08:56:01;15.40;99.90
43151;DHT22;28755;51.478;5.702;2022-10-31T08:58:26;15.30;99.90
43151;DHT22;28755;51.478;5.702;2022-10-31T09:00:53;15.30;99.90
43151;DHT22;28755;51.478;5.702;2022-10-31T09:03:25;15.10;99.90
43151;DHT22;28755;51.478;5.702;2022-10-31T09:05:55;15.10;99.90
43151;DHT22;28755;51.478;5.702;2022-10-31T09:08:20;15.20;99.90
43151;DHT22;28755;51.478;5.702;2022-10-31T09:10:46;15.20;99.90
43151;DHT22;28755;51.478;5.702;2022-10-31T09:13:14;15.80;99.90
43151;DHT22;28755;51.478;5.702;2022-10-31T09:15:44;16.40;99.90
43151;DHT22;28755;51.478;5.702;2022-10-31T09:18:12;16.90;99.90
43151;DHT22;28755;51.478;5.702;2022-10-31T09:20:39;17.60;99.90
43151;DHT22;28755;51.478;5.702;2022-10-31T09:23:16;17.70;99.90
43151;DHT22;28755;51.478;5.702;2022-10-31T09:25:43;17.60;99.90
43151;DHT22;28755;51.478;5.702;2022-10-31T09:28:11;17.60;99.90
43151;DHT22;28755;51.478;5.702;2022-10-31T09:30:37;17.60;99.90
43151;DHT22;28755;51.478;5.702;2022-10-31T09:33:10;17.60;99.90
43151;DHT22;28755;51.478;5.702;2022-10-31T09:35:36;17.80;99.90
43151;DHT22;28755;51.478;5.702;2022-10-31T09:38:13;17.50;99.90
43151;DHT22;28755;51.478;5.702;2022-10-31T09:40:45;17.50;99.90
43151;DHT22;28755;51.478;5.702;2022-10-31T09:51:03;18.00;99.90
43151;DHT22;28755;51.478;5.702;2022-10-31T09:54:06;18.00;99.90
43151;DHT22;28755;51.478;5.702;2022-10-31T09:56:31;18.00;99.90
43151;DHT22;28755;51.478;5.702;2022-10-31T09:58:59;18.00;99.90
43151;DHT22;28755;51.478;5.702;2022-10-31T10:01:59;18.20;99.90
43151;DHT22;28755;51.478;5.702;2022-10-31T10:06:52;18.80;99.90
43151;DHT22;28755;51.478;5.702;2022-10-31T10:09:20;19.10;99.90
43151;DHT22;28755;51.478;5.702;2022-10-31T10:12:00;19.40;99.90
43151;DHT22;28755;51.478;5.702;2022-10-31T10:14:50;20.10;99.90
43151;DHT22;28755;51.478;5.702;2022-10-31T10:20:10;22.00;99.90
43151;DHT22;28755;51.478;5.702;2022-10-31T10:25:15;24.80;99.90
43151;DHT22;28755;51.478;5.702;2022-10-31T10:28:44;25.30;99.90
43151;DHT22;28755;51.478;5.702;2022-10-31T10:31:08;25.00;99.90
43151;DHT22;28755;51.478;5.702;2022-10-31T10:33:52;24.80;99.90
43151;DHT22;28755;51.478;5.702;2022-10-31T10:38:59;23.90;99.90
43151;DHT22;28755;51.478;5.702;2022-10-31T10:41:31;23.30;99.90
43151;DHT22;28755;51.478;5.702;2022-10-31T10:43:57;22.90;99.90
43151;DHT22;28755;51.478;5.702;2022-10-31T10:49:24;22.00;99.90
43151;DHT22;28755;51.478;5.702;2022-10-31T10:51:59;21.40;99.90
43151;DHT22;28755;51.478;5.702;2022-10-31T10:57:22;21.20;99.90
43151;DHT22;28755;51.478;5.702;2022-10-31T10:59:51;21.30;99.90
43151;DHT22;28755;51.478;5.702;2022-10-31T11:02:25;21.10;99.90
43151;DHT22;28755;51.478;5.702;2022-10-31T11:04:57;20.70;99.90
43151;DHT22;28755;51.478;5.702;2022-10-31T11:07:23;20.30;99.90
43151;DHT22;28755;51.478;5.702;2022-10-31T11:09:49;19.90;99.90
43151;DHT22;28755;51.478;5.702;2022-10-31T11:12:29;20.00;99.90
43151;DHT22;28755;51.478;5.702;2022-10-31T11:14:59;20.30;99.90
43151;DHT22;28755;51.478;5.702;2022-10-31T11:17:33;20.60;99.90
43151;DHT22;28755;51.478;5.702;2022-10-31T11:22:47;21.30;99.90
43151;DHT22;28755;51.478;5.702;2022-10-31T11:27:46;21.10;99.90
43151;DHT22;28755;51.478;5.702;2022-10-31T11:30:13;20.90;99.90
43151;DHT22;28755;51.478;5.702;2022-10-31T11:32:58;21.30;99.90
43151;DHT22;28755;51.478;5.702;2022-10-31T11:35:24;22.10;99.90
43151;DHT22;28755;51.478;5.702;2022-10-31T11:37:53;23.30;99.90
43151;DHT22;28755;51.478;5.702;2022-10-31T11:40:21;24.80;99.90
43151;DHT22;28755;51.478;5.702;2022-10-31T11:42:48;26.00;99.90
43151;DHT22;28755;51.478;5.702;2022-10-31T11:45:33;26.90;99.90
43151;DHT22;28755;51.478;5.702;2022-10-31T11:48:00;27.10;99.90
43151;DHT22;28755;51.478;5.702;2022-10-31T11:50:36;27.10;99.90
43151;DHT22;28755;51.478;5.702;2022-10-31T11:53:09;26.60;99.90
43151;DHT22;28755;51.478;5.702;2022-10-31T11:55:38;26.30;99.90
43151;DHT22;28755;51.478;5.702;2022-10-31T11:58:22;25.30;99.90
43151;DHT22;28755;51.478;5.702;2022-10-31T12:00:54;24.30;99.90
43151;DHT22;28755;51.478;5.702;2022-10-31T12:06:12;22.60;99.90
43151;DHT22;28755;51.478;5.702;2022-10-31T12:08:40;22.60;99.90
43151;DHT22;28755;51.478;5.702;2022-10-31T12:14:26;22.20;99.90
43151;DHT22;28755;51.478;5.702;2022-10-31T12:17:19;21.90;99.90
43151;DHT22;28755;51.478;5.702;2022-10-31T12:23:19;21.40;99.90
43151;DHT22;28755;51.478;5.702;2022-10-31T12:26:08;21.40;99.90
43151;DHT22;28755;51.478;5.702;2022-10-31T12:29:14;21.50;99.90
43151;DHT22;28755;51.478;5.702;2022-10-31T12:37:49;21.60;99.90
43151;DHT22;28755;51.478;5.702;2022-10-31T12:43:06;21.20;99.90
43151;DHT22;28755;51.478;5.702;2022-10-31T12:45:51;21.30;99.90
43151;DHT22;28755;51.478;5.702;2022-10-31T12:48:50;21.30;99.90
43151;DHT22;28755;51.478;5.702;2022-10-31T12:57:23;20.10;99.90
43151;DHT22;28755;51.478;5.702;2022-10-31T13:00:07;19.70;99.90
43151;DHT22;28755;51.478;5.702;2022-10-31T13:07:58;19.30;99.90
43151;DHT22;28755;51.478;5.702;2022-10-31T13:13:01;19.20;99.90
43151;DHT22;28755;51.478;5.702;2022-10-31T13:15:31;19.00;99.90
43151;DHT22;28755;51.478;5.702;2022-10-31T13:18:03;19.00;99.90
43151;DHT22;28755;51.478;5.702;2022-10-31T13:20:33;19.10;99.90
43151;DHT22;28755;51.478;5.702;2022-10-31T13:25:46;19.00;99.90
43151;DHT22;28755;51.478;5.702;2022-10-31T13:28:29;18.90;99.90
43151;DHT22;28755;51.478;5.702;2022-10-31T13:30:56;18.90;99.90
43151;DHT22;28755;51.478;5.702;2022-10-31T13:33:32;19.00;99.90
43151;DHT22;28755;51.478;5.702;2022-10-31T13:36:31;19.00;99.90
43151;DHT22;28755;51.478;5.702;2022-10-31T13:44:19;19.00;99.90
43151;DHT22;28755;51.478;5.702;2022-10-31T13:46:46;19.10;99.90
43151;DHT22;28755;51.478;5.702;2022-10-31T13:51:47;19.10;99.90
43151;DHT22;28755;51.478;5.702;2022-10-31T13:54:33;19.10;99.90
43151;DHT22;28755;51.478;5.702;2022-10-31T13:56:59;19.00;99.90
43151;DHT22;28755;51.478;5.702;2022-10-31T13:59:30;19.00;99.90
43151;DHT22;28755;51.478;5.702;2022-10-31T14:02:00;19.10;99.90
43151;DHT22;28755;51.478;5.702;2022-10-31T14:07:30;19.10;99.90
43151;DHT22;28755;51.478;5.702;2022-10-31T14:10:26;19.20;99.90
43151;DHT22;28755;51.478;5.702;2022-10-31T14:13:03;19.10;99.90
43151;DHT22;28755;51.478;5.702;2022-10-31T14:15:29;19.10;99.90
43151;DHT22;28755;51.478;5.702;2022-10-31T14:18:04;19.10;99.90
43151;DHT22;28755;51.478;5.702;2022-10-31T14:20:36;19.10;99.90
43151;DHT22;28755;51.478;5.702;2022-10-31T14:26:19;19.20;99.90
43151;DHT22;28755;51.478;5.702;2022-10-31T14:28:46;19.30;99.90
43151;DHT22;28755;51.478;5.702;2022-10-31T14:34:02;19.40;99.90
43151;DHT22;28755;51.478;5.702;2022-10-31T14:36:34;19.50;99.90
43151;DHT22;28755;51.478;5.702;2022-10-31T14:39:21;19.50;99.90
43151;DHT22;28755;51.478;5.702;2022-10-31T14:42:08;19.30;99.90
43151;DHT22;28755;51.478;5.702;2022-10-31T14:48:33;19.10;99.90
43151;DHT22;28755;51.478;5.702;2022-10-31T14:51:12;18.90;99.90
43151;DHT22;28755;51.478;5.702;2022-10-31T14:53:51;18.80;99.90
43151;DHT22;28755;51.478;5.702;2022-10-31T14:56:22;18.80;99.90
43151;DHT22;28755;51.478;5.702;2022-10-31T14:58:50;18.80;99.90
43151;DHT22;28755;51.478;5.702;2022-10-31T15:01:33;18.70;99.90
43151;DHT22;28755;51.478;5.702;2022-10-31T15:04:13;18.80;99.90
43151;DHT22;28755;51.478;5.702;2022-10-31T15:06:46;18.90;99.90
43151;DHT22;28755;51.478;5.702;2022-10-31T15:09:30;19.00;99.90
43151;DHT22;28755;51.478;5.702;2022-10-31T15:12:05;19.10;99.90
43151;DHT22;28755;51.478;5.702;2022-10-31T15:14:40;19.10;99.90
43151;DHT22;28755;51.478;5.702;2022-10-31T15:17:05;19.20;99.90
43151;DHT22;28755;51.478;5.702;2022-10-31T15:19:32;19.20;99.90
43151;DHT22;28755;51.478;5.702;2022-10-31T15:22:00;19.30;99.90
43151;DHT22;28755;51.478;5.702;2022-10-31T15:24:33;19.30;99.90
43151;DHT22;28755;51.478;5.702;2022-10-31T15:26:59;19.20;99.90
43151;DHT22;28755;51.478;5.702;2022-10-31T15:29:26;19.10;99.90
43151;DHT22;28755;51.478;5.702;2022-10-31T15:31:57;18.90;99.90
43151;DHT22;28755;51.478;5.702;2022-10-31T15:37:01;18.60;99.90
43151;DHT22;28755;51.478;5.702;2022-10-31T15:39:27;18.50;99.90
43151;DHT22;28755;51.478;5.702;2022-10-31T15:41:55;18.50;99.90
43151;DHT22;28755;51.478;5.702;2022-10-31T15:44:26;18.40;99.90
43151;DHT22;28755;51.478;5.702;2022-10-31T15:47:17;18.30;99.90
43151;DHT22;28755;51.478;5.702;2022-10-31T15:50:04;18.20;99.90
43151;DHT22;28755;51.478;5.702;2022-10-31T15:52:38;18.10;99.90
43151;DHT22;28755;51.478;5.702;2022-10-31T15:55:16;18.00;99.90
43151;DHT22;28755;51.478;5.702;2022-10-31T15:57:47;17.90;99.90
43151;DHT22;28755;51.478;5.702;2022-10-31T16:00:23;17.90;99.90
43151;DHT22;28755;51.478;5.702;2022-10-31T16:02:49;17.80;99.90
43151;DHT22;28755;51.478;5.702;2022-10-31T16:05:17;17.80;99.90
43151;DHT22;28755;51.478;5.702;2022-10-31T16:07:51;17.70;99.90
43151;DHT22;28755;51.478;5.702;2022-10-31T16:10:25;17.70;99.90
43151;DHT22;28755;51.478;5.702;2022-10-31T16:12:51;17.60;99.90
43151;DHT22;28755;51.478;5.702;2022-10-31T16:15:19;17.60;99.90
43151;DHT22;28755;51.478;5.702;2022-10-31T16:17:47;17.50;99.90
43151;DHT22;28755;51.478;5.702;2022-10-31T16:20:28;17.50;99.90
43151;DHT22;28755;51.478;5.702;2022-10-31T16:22:55;17.40;99.90
43151;DHT22;28755;51.478;5.702;2022-10-31T16:25:36;17.40;99.90
43151;DHT22;28755;51.478;5.702;2022-10-31T16:28:18;17.30;99.90
43151;DHT22;28755;51.478;5.702;2022-10-31T16:30:45;17.30;99.90
43151;DHT22;28755;51.478;5.702;2022-10-31T16:33:30;17.30;99.90
43151;DHT22;28755;51.478;5.702;2022-10-31T16:35:59;17.20;99.90
43151;DHT22;28755;51.478;5.702;2022-10-31T16:38:27;17.30;99.90
43151;DHT22;28755;51.478;5.702;2022-10-31T16:40:53;17.30;99.90
43151;DHT22;28755;51.478;5.702;2022-10-31T16:43:20;17.20;99.90
43151;DHT22;28755;51.478;5.702;2022-10-31T16:45:48;17.10;99.90
43151;DHT22;28755;51.478;5.702;2022-10-31T16:48:18;17.20;99.90
43151;DHT22;28755;51.478;5.702;2022-10-31T16:50:46;17.10;99.90
43151;DHT22;28755;51.478;5.702;2022-10-31T16:53:13;17.00;99.90
43151;DHT22;28755;51.478;5.702;2022-10-31T16:55:50;17.10;99.90
43151;DHT22;28755;51.478;5.702;2022-10-31T16:58:29;17.20;99.90
43151;DHT22;28755;51.478;5.702;2022-10-31T17:00:55;17.20;99.90
43151;DHT22;28755;51.478;5.702;2022-10-31T17:03:21;17.10;99.90
43151;DHT22;28755;51.478;5.702;2022-10-31T17:05:47;17.20;99.90
43151;DHT22;28755;51.478;5.702;2022-10-31T17:08:12;17.20;99.90
43151;DHT22;28755;51.478;5.702;2022-10-31T17:10:39;17.20;99.90
43151;DHT22;28755;51.478;5.702;2022-10-31T17:13:09;17.20;99.90
43151;DHT22;28755;51.478;5.702;2022-10-31T17:15:42;17.20;99.90
43151;DHT22;28755;51.478;5.702;2022-10-31T17:18:11;17.10;99.90
43151;DHT22;28755;51.478;5.702;2022-10-31T17:20:37;17.20;99.90
43151;DHT22;28755;51.478;5.702;2022-10-31T17:23:03;17.20;99.90
43151;DHT22;28755;51.478;5.702;2022-10-31T17:25:29;17.20;99.90
43151;DHT22;28755;51.478;5.702;2022-10-31T17:27:58;17.10;99.90
43151;DHT22;28755;51.478;5.702;2022-10-31T17:30:24;17.10;99.90
43151;DHT22;28755;51.478;5.702;2022-10-31T17:32:50;17.00;99.90
43151;DHT22;28755;51.478;5.702;2022-10-31T17:35:16;17.00;99.90
43151;DHT22;28755;51.478;5.702;2022-10-31T17:37:43;17.00;99.90
43151;DHT22;28755;51.478;5.702;2022-10-31T17:40:10;16.90;99.90
43151;DHT22;28755;51.478;5.702;2022-10-31T17:42:36;16.80;99.90
43151;DHT22;28755;51.478;5.702;2022-10-31T17:45:03;16.80;99.90